Time;durP1;ratioP1;P1;durP2;ratioP2;P2;SDS_P1;SDS_P2;PMS_P1;PMS_P2;Temp;Humidity;BMP_temperature;BMP_pressure;BME280_temperature;BME280_humidity;BME280_pressure;Samples;Min_cycle;Max_cycle;Signal;HPM_P1;HPM_P2
2023/05/21 00:02:10;;;;;;;7.50;5.10;;;11.40;99.90;;;;;;5085059;28;20060;-83
2023/05/21 00:04:40;;;;;;;8.55;5.38;;;11.40;99.90;;;;;;5041157;28;20028;-83
2023/05/21 00:07:09;;;;;;;8.43;5.20;;;11.30;99.90;;;;;;5057107;28;20032;-82
2023/05/21 00:09:37;;;;;;;7.38;4.97;;;11.30;99.90;;;;;;5057656;28;20035;-82
2023/05/21 00:12:04;;;;;;;9.50;6.07;;;11.20;99.90;;;;;;5075286;28;20021;-82
2023/05/21 00:14:30;;;;;;;10.32;5.80;;;11.00;99.90;;;;;;5024097;28;20029;-82
2023/05/21 00:16:55;;;;;;;8.77;5.32;;;10.90;99.90;;;;;;5075267;28;20036;-82
2023/05/21 00:19:21;;;;;;;9.00;5.75;;;10.80;99.90;;;;;;5074069;28;20040;-82
2023/05/21 00:21:47;;;;;;;8.95;5.30;;;10.80;99.90;;;;;;5056200;28;20024;-82
2023/05/21 00:24:12;;;;;;;7.20;4.93;;;10.80;99.90;;;;;;5056058;28;20028;-82
2023/05/21 00:26:38;;;;;;;10.45;5.78;;;10.80;99.90;;;;;;5051273;28;20537;-83
2023/05/21 00:29:04;;;;;;;8.80;5.40;;;10.80;99.90;;;;;;5077272;28;20070;-82
2023/05/21 00:31:30;;;;;;;8.02;5.45;;;10.70;99.90;;;;;;5060975;28;20029;-82
2023/05/21 00:33:56;;;;;;;8.45;5.07;;;10.70;99.90;;;;;;5075064;28;20020;-82
2023/05/21 00:36:22;;;;;;;7.07;4.63;;;10.60;99.90;;;;;;5075149;28;20021;-83
2023/05/21 00:38:49;;;;;;;7.30;4.95;;;10.50;99.90;;;;;;5057428;28;20096;-83
2023/05/21 00:41:16;;;;;;;10.48;5.72;;;10.40;99.90;;;;;;5040540;28;20117;-82
2023/05/21 00:43:43;;;;;;;7.22;4.80;;;10.40;99.90;;;;;;5056652;28;20104;-82
2023/05/21 00:46:17;;;;;;;7.47;5.30;;;10.40;99.90;;;;;;5074366;28;20024;-83
2023/05/21 00:48:47;;;;;;;8.45;4.68;;;10.40;99.90;;;;;;5075119;28;20020;-82
2023/05/21 00:51:14;;;;;;;7.22;5.10;;;10.30;99.90;;;;;;5057142;28;20104;-83
2023/05/21 00:53:41;;;;;;;9.30;5.93;;;10.40;99.90;;;;;;5040386;28;20071;-83
2023/05/21 00:56:07;;;;;;;8.68;5.97;;;10.40;99.90;;;;;;5068365;28;20393;-83
2023/05/21 00:58:33;;;;;;;9.13;6.03;;;10.40;99.90;;;;;;5036685;28;20025;-82
2023/05/21 01:01:02;;;;;;;9.57;5.43;;;10.50;99.90;;;;;;5036974;28;20029;-83
2023/05/21 01:03:37;;;;;;;8.50;5.53;;;10.50;99.90;;;;;;5037055;28;20388;-83
2023/05/21 01:06:09;;;;;;;7.43;4.97;;;10.40;99.90;;;;;;5022058;28;20029;-83
2023/05/21 01:08:36;;;;;;;9.32;4.95;;;10.40;99.90;;;;;;5056131;28;20350;-82
2023/05/21 01:11:03;;;;;;;7.72;4.80;;;10.40;99.90;;;;;;5037313;28;20029;-83
2023/05/21 01:13:31;;;;;;;9.88;5.20;;;10.40;99.90;;;;;;5065389;28;20025;-82
2023/05/21 01:15:58;;;;;;;7.13;5.10;;;10.40;99.90;;;;;;5057707;28;20082;-83
2023/05/21 01:18:25;;;;;;;6.63;5.03;;;10.40;99.90;;;;;;5057526;28;20370;-83
2023/05/21 01:20:51;;;;;;;10.98;5.65;;;10.30;99.90;;;;;;5040477;28;20051;-83
2023/05/21 01:23:17;;;;;;;9.25;6.00;;;10.30;99.90;;;;;;5075125;28;20031;-82
2023/05/21 01:25:44;;;;;;;10.75;5.88;;;10.20;99.90;;;;;;5043190;28;20139;-82
2023/05/21 01:28:10;;;;;;;9.57;5.22;;;10.20;99.90;;;;;;5059859;28;20024;-83
2023/05/21 01:30:38;;;;;;;8.70;5.82;;;10.00;99.90;;;;;;5057056;28;20028;-83
2023/05/21 01:33:11;;;;;;;18.38;13.15;;;9.90;99.90;;;;;;5056962;28;20032;-83
2023/05/21 01:35:50;;;;;;;12.23;7.35;;;9.80;99.90;;;;;;5074931;28;20025;-83
2023/05/21 01:38:21;;;;;;;10.35;6.90;;;9.80;99.90;;;;;;5075122;28;20039;-82
2023/05/21 01:41:05;;;;;;;8.77;5.53;;;9.80;99.90;;;;;;5056739;28;20043;-82
2023/05/21 01:43:35;;;;;;;6.88;4.53;;;9.80;99.90;;;;;;5074202;28;20381;-83
2023/05/21 01:46:02;;;;;;;8.45;5.47;;;9.80;99.90;;;;;;5072055;28;20032;-82
2023/05/21 01:48:29;;;;;;;8.65;5.53;;;9.70;99.90;;;;;;5039465;28;20506;-83
2023/05/21 01:50:59;;;;;;;8.40;5.55;;;9.60;99.90;;;;;;5056586;28;20029;-83
2023/05/21 01:53:25;;;;;;;9.68;5.55;;;9.60;99.90;;;;;;5054890;28;20032;-83
2023/05/21 01:55:51;;;;;;;8.23;5.53;;;9.60;99.90;;;;;;5074520;28;20029;-82
2023/05/21 01:58:17;;;;;;;8.73;5.65;;;9.50;99.90;;;;;;5042050;28;20404;-83
2023/05/21 02:00:44;;;;;;;8.93;6.13;;;9.60;99.90;;;;;;5044411;28;20038;-82
2023/05/21 02:03:10;;;;;;;7.90;5.72;;;9.60;99.90;;;;;;5043952;28;20115;-82
2023/05/21 02:05:36;;;;;;;8.65;5.97;;;9.70;99.90;;;;;;5044181;28;20036;-82
2023/05/21 02:08:02;;;;;;;11.52;5.80;;;9.70;99.90;;;;;;5043860;28;20120;-82
2023/05/21 02:10:27;;;;;;;7.20;5.07;;;9.80;99.90;;;;;;5078721;28;20050;-82
2023/05/21 02:12:53;;;;;;;8.38;6.28;;;9.80;99.90;;;;;;5078164;28;20029;-82
2023/05/21 02:15:19;;;;;;;8.82;6.15;;;9.80;99.90;;;;;;5056944;28;20025;-82
2023/05/21 02:17:45;;;;;;;10.23;6.50;;;9.80;99.90;;;;;;5056989;28;20396;-82
2023/05/21 02:20:12;;;;;;;10.80;7.10;;;9.80;99.90;;;;;;5057234;28;20035;-82
2023/05/21 02:22:43;;;;;;;12.95;7.82;;;9.70;99.90;;;;;;5056864;28;20084;-82
2023/05/21 02:25:11;;;;;;;15.35;8.82;;;9.70;99.90;;;;;;5043628;28;20373;-82
2023/05/21 02:27:38;;;;;;;13.50;8.13;;;9.70;99.90;;;;;;5063455;28;20028;-82
2023/05/21 02:30:06;;;;;;;12.52;7.97;;;9.70;99.90;;;;;;5087699;28;20086;-82
2023/05/21 02:32:32;;;;;;;9.20;6.53;;;9.70;99.90;;;;;;5078013;28;20052;-82
2023/05/21 02:34:58;;;;;;;10.00;7.07;;;9.70;99.90;;;;;;5044418;28;20481;-82
2023/05/21 02:37:28;;;;;;;9.95;6.68;;;9.70;99.90;;;;;;5075266;28;20412;-82
2023/05/21 02:39:55;;;;;;;10.90;6.75;;;9.60;99.90;;;;;;5043727;28;20029;-82
2023/05/21 02:42:23;;;;;;;11.25;6.82;;;9.60;99.90;;;;;;5056082;28;20077;-82
2023/05/21 02:44:50;;;;;;;10.63;6.63;;;9.50;99.90;;;;;;5080120;28;20076;-82
2023/05/21 02:47:16;;;;;;;10.43;6.43;;;9.50;99.90;;;;;;5043100;28;20480;-82
2023/05/21 02:49:42;;;;;;;10.18;6.63;;;9.40;99.90;;;;;;5077506;28;20502;-82
2023/05/21 02:52:07;;;;;;;12.57;8.35;;;9.40;99.90;;;;;;5059917;28;20052;-82
2023/05/21 02:54:33;;;;;;;15.05;9.55;;;9.30;99.90;;;;;;5042761;28;20380;-82
2023/05/21 02:56:59;;;;;;;15.95;10.60;;;9.20;99.90;;;;;;5052651;28;20028;-82
2023/05/21 02:59:24;;;;;;;15.15;9.48;;;9.10;99.90;;;;;;5077428;28;20024;-82
2023/05/21 03:01:50;;;;;;;13.18;8.60;;;9.10;99.90;;;;;;5059407;28;20524;-82
2023/05/21 03:04:20;;;;;;;11.77;7.38;;;9.10;99.90;;;;;;5077112;28;20374;-82
2023/05/21 03:06:47;;;;;;;9.77;7.07;;;9.10;99.90;;;;;;5060467;28;20025;-82
2023/05/21 03:09:13;;;;;;;8.85;5.97;;;9.10;99.90;;;;;;5050994;28;20060;-82
2023/05/21 03:11:38;;;;;;;8.05;5.10;;;9.10;99.90;;;;;;5077348;28;20028;-81
2023/05/21 03:14:05;;;;;;;9.38;5.22;;;9.10;99.90;;;;;;5076798;28;20027;-82
2023/05/21 03:16:33;;;;;;;7.80;5.22;;;9.00;99.90;;;;;;5042669;28;20036;-82
2023/05/21 03:18:59;;;;;;;10.10;6.05;;;9.00;99.90;;;;;;5059932;28;20052;-82
2023/05/21 03:21:28;;;;;;;9.93;5.82;;;9.10;99.90;;;;;;5076904;28;20384;-83
2023/05/21 03:23:57;;;;;;;8.07;5.45;;;9.10;99.90;;;;;;5058916;28;20484;-83
2023/05/21 03:26:28;;;;;;;9.77;5.57;;;9.10;99.90;;;;;;5063598;28;20029;-82
2023/05/21 03:28:54;;;;;;;7.60;5.13;;;9.00;99.90;;;;;;5058919;28;20105;-82
2023/05/21 03:31:21;;;;;;;9.95;5.70;;;9.10;99.90;;;;;;5077002;28;20104;-82
2023/05/21 03:33:47;;;;;;;7.90;5.25;;;9.00;99.90;;;;;;5058930;28;20024;-82
2023/05/21 03:36:13;;;;;;;6.60;4.90;;;9.00;99.90;;;;;;5059295;28;20024;-82
2023/05/21 03:38:38;;;;;;;9.35;5.43;;;9.00;99.90;;;;;;5062481;28;20504;-82
2023/05/21 03:41:05;;;;;;;8.10;5.60;;;8.90;99.90;;;;;;5039205;28;20025;-82
2023/05/21 03:43:30;;;;;;;8.70;5.10;;;8.80;99.90;;;;;;5022700;28;20025;-82
2023/05/21 03:45:56;;;;;;;10.18;5.38;;;8.80;99.90;;;;;;5038750;28;20021;-82
2023/05/21 03:48:22;;;;;;;9.05;5.70;;;8.80;99.90;;;;;;5039213;28;20111;-82
2023/05/21 03:50:47;;;;;;;8.75;5.85;;;8.70;99.90;;;;;;5038902;28;20053;-82
2023/05/21 03:53:13;;;;;;;9.93;6.18;;;8.70;99.90;;;;;;5055810;28;20040;-82
2023/05/21 03:55:39;;;;;;;8.95;6.28;;;8.70;99.90;;;;;;5027362;28;20025;-82
2023/05/21 03:58:04;;;;;;;9.68;5.47;;;8.70;99.90;;;;;;5064279;28;20511;-82
2023/05/21 04:00:33;;;;;;;8.38;5.45;;;8.70;99.90;;;;;;5058725;28;20028;-82
2023/05/21 04:02:59;;;;;;;8.15;5.60;;;8.70;99.90;;;;;;5076002;28;20036;-82
2023/05/21 04:05:25;;;;;;;9.40;5.60;;;8.70;99.90;;;;;;5057228;28;20116;-82
2023/05/21 04:07:51;;;;;;;11.77;5.90;;;8.70;99.90;;;;;;5036933;28;20619;-82
2023/05/21 04:10:17;;;;;;;9.30;5.20;;;8.70;99.90;;;;;;5037096;28;20405;-82
2023/05/21 04:12:42;;;;;;;6.85;5.22;;;8.70;99.90;;;;;;5067093;28;20039;-82
2023/05/21 04:15:08;;;;;;;9.02;5.35;;;8.70;99.90;;;;;;5074726;28;20091;-82
2023/05/21 04:17:34;;;;;;;8.68;5.43;;;8.70;99.90;;;;;;5040273;28;20040;-82
2023/05/21 04:20:00;;;;;;;10.15;6.05;;;8.70;99.90;;;;;;5039255;28;20056;-82
2023/05/21 04:22:25;;;;;;;10.55;5.95;;;8.80;99.90;;;;;;5057452;28;20457;-82
2023/05/21 04:24:54;;;;;;;9.82;6.65;;;8.80;99.90;;;;;;5023803;28;20063;-82
2023/05/21 04:27:23;;;;;;;9.50;6.85;;;8.70;99.90;;;;;;5056440;28;20041;-82
2023/05/21 04:29:49;;;;;;;10.23;6.53;;;8.70;99.90;;;;;;5057489;28;20020;-82
2023/05/21 04:32:16;;;;;;;9.38;6.68;;;8.70;99.90;;;;;;5075912;28;20074;-83
2023/05/21 04:34:43;;;;;;;11.63;6.70;;;8.60;99.90;;;;;;5057242;28;20550;-83
2023/05/21 04:37:08;;;;;;;9.00;6.50;;;8.60;99.90;;;;;;5058057;28;20059;-82
2023/05/21 04:39:35;;;;;;;9.23;6.10;;;8.60;99.90;;;;;;5057728;28;20401;-82
2023/05/21 04:42:02;;;;;;;9.18;6.30;;;8.60;99.90;;;;;;5057350;28;20401;-82
2023/05/21 04:44:30;;;;;;;8.30;6.13;;;8.60;99.90;;;;;;5040764;28;20039;-82
2023/05/21 04:46:57;;;;;;;10.63;6.20;;;8.60;99.90;;;;;;5057325;28;20561;-82
2023/05/21 04:49:23;;;;;;;9.30;6.47;;;8.60;99.90;;;;;;5056847;28;20051;-82
2023/05/21 04:51:48;;;;;;;11.20;6.07;;;8.60;99.90;;;;;;5040940;28;20484;-82
2023/05/21 04:54:14;;;;;;;10.45;7.00;;;8.60;99.90;;;;;;5040292;28;20093;-82
2023/05/21 04:56:40;;;;;;;14.10;8.65;;;8.60;99.90;;;;;;5081639;28;20024;-82
2023/05/21 04:59:05;;;;;;;13.18;7.38;;;8.70;99.90;;;;;;5040510;28;20473;-78
2023/05/21 05:01:33;;;;;;;12.23;6.75;;;8.70;99.90;;;;;;5056307;28;20463;-79
2023/05/21 05:04:00;;;;;;;10.85;6.97;;;8.70;99.90;;;;;;5056327;28;20366;-79
2023/05/21 05:06:25;;;;;;;10.82;7.03;;;8.70;99.90;;;;;;5039994;28;20037;-78
2023/05/21 05:08:51;;;;;;;13.25;8.27;;;8.80;99.90;;;;;;5040016;28;20112;-78
2023/05/21 05:11:17;;;;;;;14.10;8.07;;;8.80;99.90;;;;;;5039781;28;20028;-78
2023/05/21 05:13:42;;;;;;;12.48;7.25;;;8.80;99.90;;;;;;5039376;28;20400;-78
2023/05/21 05:16:08;;;;;;;9.80;6.57;;;8.90;99.90;;;;;;5074754;28;20029;-79
2023/05/21 05:18:35;;;;;;;10.95;7.10;;;8.90;99.90;;;;;;5073626;28;20088;-78
2023/05/21 05:21:01;;;;;;;11.20;7.43;;;9.00;99.90;;;;;;5056287;28;20052;-79
2023/05/21 05:23:26;;;;;;;10.90;7.05;;;9.10;99.90;;;;;;5056102;28;20519;-78
2023/05/21 05:25:52;;;;;;;10.88;7.15;;;9.10;99.90;;;;;;5078580;28;20468;-79
2023/05/21 05:28:17;;;;;;;11.75;7.00;;;9.10;99.90;;;;;;5064207;28;20127;-79
2023/05/21 05:30:43;;;;;;;13.13;7.32;;;9.20;99.90;;;;;;5057364;28;20060;-79
2023/05/21 05:33:10;;;;;;;11.02;6.97;;;9.20;99.90;;;;;;5056906;28;20032;-80
2023/05/21 05:35:36;;;;;;;10.57;6.63;;;9.30;99.90;;;;;;5056810;28;20048;-78
2023/05/21 05:38:01;;;;;;;14.50;8.20;;;9.40;99.90;;;;;;5075040;28;20033;-79
2023/05/21 05:40:27;;;;;;;10.88;7.43;;;9.50;99.90;;;;;;5075209;28;20044;-78
2023/05/21 05:42:53;;;;;;;10.65;7.57;;;9.70;99.90;;;;;;5040852;28;20039;-79
2023/05/21 05:45:19;;;;;;;11.45;7.32;;;9.80;99.90;;;;;;5056693;28;20036;-79
2023/05/21 05:47:45;;;;;;;10.95;7.88;;;10.00;99.90;;;;;;5055952;28;20036;-79
2023/05/21 05:50:11;;;;;;;11.32;7.50;;;10.10;99.90;;;;;;5056620;28;20090;-78
2023/05/21 05:52:36;;;;;;;10.55;6.43;;;10.30;99.90;;;;;;5056384;28;20461;-78
2023/05/21 05:55:02;;;;;;;11.45;7.85;;;10.40;99.90;;;;;;5074847;28;20039;-78
2023/05/21 05:57:28;;;;;;;11.68;7.90;;;10.60;99.90;;;;;;5076803;28;20480;-78
2023/05/21 05:59:54;;;;;;;11.88;7.93;;;10.70;99.90;;;;;;5057004;28;20029;-79
2023/05/21 06:02:19;;;;;;;14.57;8.10;;;10.80;99.90;;;;;;5056713;28;20078;-79
2023/05/21 06:04:45;;;;;;;11.38;6.57;;;10.90;99.90;;;;;;5056402;28;20035;-79
2023/05/21 06:07:11;;;;;;;13.48;8.15;;;11.00;99.90;;;;;;5054611;28;20041;-78
2023/05/21 06:09:37;;;;;;;13.82;8.55;;;11.10;99.90;;;;;;5054402;28;20116;-79
2023/05/21 06:12:05;;;;;;;11.18;8.23;;;11.20;99.90;;;;;;5024200;28;20025;-79
2023/05/21 06:14:31;;;;;;;10.43;7.53;;;11.30;99.90;;;;;;5056816;28;20103;-79
2023/05/21 06:16:57;;;;;;;14.45;9.82;;;11.30;99.90;;;;;;5039955;28;20469;-78
2023/05/21 06:19:23;;;;;;;13.68;9.27;;;11.40;99.90;;;;;;5057061;28;20021;-78
2023/05/21 06:21:49;;;;;;;14.30;9.88;;;11.40;99.90;;;;;;5040600;28;20385;-79
2023/05/21 06:24:15;;;;;;;13.25;9.52;;;11.50;99.90;;;;;;5057901;28;20037;-77
2023/05/21 06:26:41;;;;;;;16.98;10.00;;;11.60;99.90;;;;;;5080468;28;20381;-79
2023/05/21 06:29:07;;;;;;;13.98;9.95;;;11.60;99.90;;;;;;5056882;28;20096;-78
2023/05/21 06:31:33;;;;;;;15.05;10.57;;;11.70;99.90;;;;;;5074686;28;20016;-78
2023/05/21 06:33:59;;;;;;;15.57;9.32;;;11.80;99.90;;;;;;5035840;28;20025;-78
2023/05/21 06:36:28;;;;;;;13.98;9.50;;;11.80;99.90;;;;;;5051277;28;20115;-78
2023/05/21 06:38:55;;;;;;;14.75;9.25;;;11.90;99.90;;;;;;5057304;28;20032;-78
2023/05/21 06:41:21;;;;;;;15.18;9.02;;;12.10;99.90;;;;;;5041238;28;20020;-79
2023/05/21 06:43:47;;;;;;;12.27;8.85;;;12.20;99.90;;;;;;5057452;28;20496;-79
2023/05/21 06:46:13;;;;;;;13.57;9.10;;;12.30;99.90;;;;;;5059442;28;20489;-79
2023/05/21 06:48:38;;;;;;;13.25;9.63;;;12.40;99.90;;;;;;5059518;28;20032;-78
2023/05/21 06:51:04;;;;;;;13.15;9.45;;;12.50;99.90;;;;;;5043796;28;20078;-79
2023/05/21 06:53:30;;;;;;;11.20;7.65;;;12.70;99.90;;;;;;5042783;28;20396;-78
2023/05/21 06:55:56;;;;;;;10.35;7.88;;;12.90;99.90;;;;;;5047753;28;20472;-78
2023/05/21 06:58:22;;;;;;;12.48;8.75;;;13.00;99.90;;;;;;5080160;28;20396;-78
2023/05/21 07:00:48;;;;;;;13.07;8.23;;;13.10;99.90;;;;;;5053430;28;20028;-78
2023/05/21 07:03:14;;;;;;;11.27;8.27;;;13.30;99.90;;;;;;5059483;28;20096;-78
2023/05/21 07:05:40;;;;;;;14.85;9.85;;;13.50;99.90;;;;;;5077042;28;20028;-78
2023/05/21 07:08:05;;;;;;;12.55;7.93;;;13.70;99.90;;;;;;5076709;28;20488;-78
2023/05/21 07:10:31;;;;;;;12.07;8.88;;;13.90;99.90;;;;;;5059862;28;20092;-78
2023/05/21 07:12:57;;;;;;;12.82;8.38;;;14.10;99.90;;;;;;5059498;28;20025;-78
2023/05/21 07:15:22;;;;;;;13.55;9.95;;;14.30;99.90;;;;;;5054758;28;20099;-78
2023/05/21 07:17:48;;;;;;;14.98;9.48;;;14.50;99.90;;;;;;5076983;28;20032;-78
2023/05/21 07:20:14;;;;;;;15.05;11.13;;;14.70;99.90;;;;;;5076852;28;20032;-78
2023/05/21 07:22:41;;;;;;;13.25;9.60;;;14.80;99.90;;;;;;5059085;28;20039;-78
2023/05/21 07:25:08;;;;;;;15.45;8.80;;;15.00;99.90;;;;;;5076928;28;20108;-78
2023/05/21 07:27:33;;;;;;;13.20;8.60;;;15.20;99.90;;;;;;5063515;28;20039;-79
2023/05/21 07:29:59;;;;;;;11.23;8.30;;;15.40;99.90;;;;;;5041963;28;20417;-79
2023/05/21 07:32:27;;;;;;;11.25;7.15;;;15.60;99.90;;;;;;5077018;28;20024;-79
2023/05/21 07:34:53;;;;;;;12.05;6.93;;;15.70;99.90;;;;;;5076907;28;20393;-78
2023/05/21 07:37:19;;;;;;;9.43;6.35;;;15.90;99.90;;;;;;5058695;28;20036;-78
2023/05/21 07:39:45;;;;;;;11.30;6.57;;;16.00;99.90;;;;;;5041762;28;20036;-78
2023/05/21 07:42:11;;;;;;;10.40;6.95;;;16.20;99.90;;;;;;5038201;28;20029;-78
2023/05/21 07:44:37;;;;;;;10.38;7.15;;;16.30;99.90;;;;;;5057473;28;20024;-78
2023/05/21 07:47:03;;;;;;;9.50;6.43;;;16.40;99.90;;;;;;5058185;28;20037;-78
2023/05/21 07:49:29;;;;;;;9.68;6.60;;;16.50;99.90;;;;;;5057984;28;20074;-78
2023/05/21 07:51:55;;;;;;;8.38;6.38;;;16.60;99.90;;;;;;5041389;28;20100;-78
2023/05/21 07:54:20;;;;;;;8.05;6.20;;;16.80;99.90;;;;;;5075358;28;20035;-78
2023/05/21 07:56:47;;;;;;;9.93;6.13;;;16.90;99.90;;;;;;5053339;28;20139;-78
2023/05/21 07:59:15;;;;;;;7.78;5.65;;;17.00;99.90;;;;;;5079266;28;20106;-78
2023/05/21 08:01:42;;;;;;;12.13;6.13;;;17.10;99.90;;;;;;5075517;28;20074;-78
2023/05/21 08:04:08;;;;;;;7.57;5.60;;;17.20;99.90;;;;;;5075798;28;20034;-78
2023/05/21 08:06:36;;;;;;;9.15;6.10;;;17.30;99.90;;;;;;5075293;28;20036;-78
2023/05/21 08:09:02;;;;;;;9.38;6.13;;;17.40;99.90;;;;;;5058000;28;20017;-78
2023/05/21 08:11:28;;;;;;;7.43;5.53;;;17.50;99.90;;;;;;5057319;28;20035;-78
2023/05/21 08:13:55;;;;;;;9.05;6.60;;;17.60;99.90;;;;;;5040313;28;20082;-78
2023/05/21 08:16:22;;;;;;;9.15;6.00;;;17.80;99.90;;;;;;5057581;28;20032;-78
2023/05/21 08:18:48;;;;;;;8.85;6.28;;;18.00;99.30;;;;;;5058000;28;20091;-78
2023/05/21 08:21:13;;;;;;;8.57;6.10;;;18.20;97.20;;;;;;5075317;28;20036;-78
2023/05/21 08:23:39;;;;;;;9.25;6.13;;;18.30;95.30;;;;;;5075515;28;20035;-79
2023/05/21 08:26:05;;;;;;;10.68;6.78;;;18.50;96.70;;;;;;5028282;28;20032;-78
2023/05/21 08:28:31;;;;;;;8.82;6.50;;;18.60;97.20;;;;;;5055790;28;20373;-78
2023/05/21 08:30:57;;;;;;;10.57;6.50;;;18.80;95.10;;;;;;5075367;28;20032;-78
2023/05/21 08:33:23;;;;;;;8.10;6.32;;;18.90;94.40;;;;;;5057309;28;20460;-78
2023/05/21 08:35:51;;;;;;;8.05;5.80;;;19.20;92.60;;;;;;5061270;28;20495;-78
2023/05/21 08:38:17;;;;;;;9.25;5.47;;;19.40;92.40;;;;;;5057273;28;20028;-78
2023/05/21 08:40:44;;;;;;;8.90;5.53;;;19.80;90.00;;;;;;5056618;28;20033;-79
2023/05/21 08:43:12;;;;;;;6.90;5.68;;;19.90;86.20;;;;;;5057408;28;20484;-78
2023/05/21 08:45:43;;;;;;;8.20;6.15;;;20.10;90.70;;;;;;5075325;28;20029;-78
2023/05/21 08:48:13;;;;;;;10.07;5.45;;;20.40;84.00;;;;;;5076036;28;20466;-78
2023/05/21 08:50:40;;;;;;;6.85;5.15;;;20.60;85.10;;;;;;5057960;28;20056;-78
2023/05/21 08:53:05;;;;;;;7.45;5.43;;;20.70;81.10;;;;;;5057214;28;20120;-78
2023/05/21 08:55:35;;;;;;;8.40;5.28;;;20.90;80.60;;;;;;5075733;28;20062;-79
2023/05/21 08:58:03;;;;;;;8.77;4.90;;;21.00;78.00;;;;;;5090119;28;20032;-78
2023/05/21 09:00:29;;;;;;;9.85;5.47;;;21.20;79.10;;;;;;5056896;28;20373;-78
2023/05/21 09:02:55;;;;;;;7.15;5.00;;;21.20;77.40;;;;;;5057301;28;20039;-78
2023/05/21 09:05:21;;;;;;;6.32;5.00;;;21.30;76.00;;;;;;5057339;28;20036;-79
2023/05/21 09:08:31;;;;;;;7.13;4.93;;;21.30;76.10;;;;;;5039357;28;20169;-78
2023/05/21 09:10:56;;;;;;;9.75;5.70;;;21.40;75.40;;;;;;5065400;28;20032;-79
2023/05/21 09:13:25;;;;;;;6.38;4.88;;;21.60;76.30;;;;;;5075512;28;20035;-77
2023/05/21 09:15:50;;;;;;;7.00;4.85;;;21.80;72.30;;;;;;5071542;28;20077;-79
2023/05/21 09:18:16;;;;;;;5.45;4.20;;;22.00;73.70;;;;;;5039494;28;20494;-79
2023/05/21 09:20:42;;;;;;;7.60;5.03;;;22.20;65.90;;;;;;5039044;28;20562;-79
2023/05/21 09:23:15;;;;;;;6.20;4.72;;;22.30;62.20;;;;;;5057150;28;20392;-79
2023/05/21 09:25:43;;;;;;;5.75;4.80;;;22.40;61.90;;;;;;5074538;28;20036;-79
2023/05/21 09:28:13;;;;;;;6.97;4.75;;;22.60;61.10;;;;;;5055975;28;20039;-79
2023/05/21 09:30:47;;;;;;;7.63;4.80;;;22.70;60.60;;;;;;5056457;28;20031;-79
2023/05/21 09:33:23;;;;;;;5.93;4.18;;;22.70;61.10;;;;;;5075497;28;20581;-78
2023/05/21 09:35:49;;;;;;;7.97;4.95;;;22.60;61.60;;;;;;5075016;28;20028;-79
2023/05/21 09:38:15;;;;;;;5.18;4.25;;;22.60;61.00;;;;;;5058904;28;20447;-78
2023/05/21 09:40:47;;;;;;;5.80;4.22;;;22.70;60.20;;;;;;5073941;28;20033;-78
2023/05/21 09:43:17;;;;;;;6.07;4.05;;;22.80;59.50;;;;;;5070028;28;20104;-76
2023/05/21 09:45:56;;;;;;;6.75;4.10;;;23.00;59.10;;;;;;5054878;28;20036;-76
2023/05/21 09:48:54;;;;;;;6.60;4.70;;;23.20;61.40;;;;;;5073215;28;19917;-76
2023/05/21 09:51:20;;;;;;;;;;;23.50;63.50;;;;;;5022239;28;20047;-76
2023/05/21 09:53:50;;;;;;;;;;;23.60;60.90;;;;;;5069122;28;19912;-76
2023/05/21 09:56:30;;;;;;;;;;;23.50;60.50;;;;;;5048324;28;19922;-76
2023/05/21 09:59:00;;;;;;;;;;;23.40;59.40;;;;;;5071933;28;19908;-76
2023/05/21 10:01:27;;;;;;;;;;;23.30;60.00;;;;;;5063900;28;20360;-76
2023/05/21 10:03:55;;;;;;;;;;;23.40;58.30;;;;;;5054865;28;19955;-76
2023/05/21 10:06:22;;;;;;;;;;;23.40;56.90;;;;;;5073131;28;19904;-76
2023/05/21 10:08:51;;;;;;;;;;;23.30;57.60;;;;;;5073397;28;20380;-76
2023/05/21 10:11:18;;;;;;;;;;;23.20;58.00;;;;;;5073662;28;19971;-76
2023/05/21 10:13:44;;;;;;;;;;;23.20;60.00;;;;;;5067897;28;19908;-75
2023/05/21 10:16:10;;;;;;;;;;;23.40;59.50;;;;;;5050012;28;19920;-76
2023/05/21 10:18:36;;;;;;;;;;;23.50;60.40;;;;;;5052188;28;19942;-76
2023/05/21 10:21:02;;;;;;;;;;;23.70;62.40;;;;;;5075444;28;19909;-76
2023/05/21 10:23:28;;;;;;;;;;;23.90;61.20;;;;;;5076128;28;20024;-76
2023/05/21 10:25:55;;;;;;;;;;;23.70;57.20;;;;;;5062655;28;19912;-75
2023/05/21 10:28:21;;;;;;;;;;;23.70;59.40;;;;;;5075897;28;20276;-76
2023/05/21 10:30:47;;;;;;;;;;;23.80;58.80;;;;;;5079292;28;19916;-76
2023/05/21 10:33:15;;;;;;;;;;;24.00;61.50;;;;;;5078975;28;19912;-76
2023/05/21 10:35:41;;;;;;;;;;;23.90;55.80;;;;;;5061731;28;19916;-76
2023/05/21 10:38:07;;;;;;;;;;;23.90;57.60;;;;;;5075898;28;19909;-76
2023/05/21 10:40:34;;;;;;;;;;;23.90;56.00;;;;;;5077321;28;19908;-76
2023/05/21 10:43:06;;;;;;;;;;;23.90;55.70;;;;;;5058929;28;19917;-76
2023/05/21 10:46:01;;;;;;;;;;;23.70;55.90;;;;;;5076744;28;20364;-76
2023/05/21 10:48:49;;;;;;;6.55;4.35;;;23.70;56.70;;;;;;5021918;28;19969;-76
2023/05/21 10:51:23;;;;;;;10.95;4.40;;;23.70;57.10;;;;;;5074009;28;20074;-76
2023/05/21 10:53:55;;;;;;;7.25;4.47;;;23.70;55.10;;;;;;5065991;28;20082;-76
2023/05/21 10:56:31;;;;;;;6.70;4.22;;;23.60;55.90;;;;;;5066295;28;20028;-76
2023/05/21 10:59:17;;;;;;;6.65;4.32;;;23.50;57.00;;;;;;5077149;28;20078;-76
2023/05/21 11:01:44;;;;;;;6.43;4.68;;;23.40;56.50;;;;;;5073098;28;20036;-76
2023/05/21 11:04:11;;;;;;;5.97;4.38;;;23.30;56.70;;;;;;5081118;28;20032;-76
2023/05/21 11:06:36;;;;;;;5.93;4.10;;;23.20;57.80;;;;;;5076839;28;20391;-76
2023/05/21 11:09:12;;;;;;;6.95;4.40;;;23.10;58.20;;;;;;5076161;28;20100;-76
2023/05/21 11:11:44;;;;;;;8.60;4.32;;;23.20;59.60;;;;;;5076380;28;20028;-76
2023/05/21 11:14:33;;;;;;;5.70;4.43;;;23.40;60.20;;;;;;5057785;28;20098;-76
2023/05/21 11:17:08;;;;;;;8.32;4.30;;;23.60;57.70;;;;;;5057698;28;20384;-76
2023/05/21 11:19:37;;;;;;;8.48;4.28;;;23.60;55.90;;;;;;5076137;28;20040;-76
2023/05/21 11:22:22;;;;;;;7.50;4.43;;;23.50;56.20;;;;;;5076752;28;20070;-77
2023/05/21 11:24:49;;;;;;;5.15;4.07;;;23.50;56.90;;;;;;5058318;28;20036;-76
2023/05/21 11:27:35;;;;;;;8.10;4.20;;;23.50;58.70;;;;;;5058006;28;20524;-76
2023/05/21 11:30:14;;;;;;;7.85;4.55;;;23.60;58.00;;;;;;5073849;28;20028;-76
2023/05/21 11:33:15;;;;;;;7.03;4.00;;;23.80;58.20;;;;;;5075951;28;20025;-76
2023/05/21 11:35:46;;;;;;;7.43;4.10;;;23.80;56.70;;;;;;5075302;28;20025;-76
2023/05/21 11:38:12;;;;;;;5.30;3.72;;;23.70;56.80;;;;;;5075499;28;20035;-76
2023/05/21 11:40:50;;;;;;;6.80;4.35;;;23.50;57.70;;;;;;5056484;28;20033;-76
2023/05/21 11:43:17;;;;;;;9.25;4.65;;;23.40;57.70;;;;;;5075362;28;20021;-76
2023/05/21 11:45:45;;;;;;;7.40;4.55;;;23.40;57.90;;;;;;5075122;28;20032;-76
2023/05/21 11:48:13;;;;;;;8.05;4.18;;;23.30;57.20;;;;;;5075251;28;20024;-76
2023/05/21 11:50:41;;;;;;;6.25;3.75;;;23.20;58.60;;;;;;5075440;28;20035;-76
2023/05/21 11:53:07;;;;;;;6.53;3.90;;;23.40;56.60;;;;;;5075993;28;20112;-76
2023/05/21 11:55:38;;;;;;;6.72;4.38;;;23.70;58.70;;;;;;5023925;28;20106;-76
2023/05/21 11:58:07;;;;;;;5.65;3.95;;;24.10;57.80;;;;;;5052053;28;20039;-76
2023/05/21 12:00:38;;;;;;;7.60;4.05;;;24.00;54.10;;;;;;5046400;28;20036;-76
2023/05/21 12:03:06;;;;;;;6.45;4.28;;;24.00;56.30;;;;;;5075212;28;20024;-76
2023/05/21 12:05:46;;;;;;;6.97;4.13;;;24.20;57.30;;;;;;5057296;28;20484;-76
2023/05/21 12:08:12;;;;;;;6.75;3.88;;;24.40;55.50;;;;;;5055026;28;20029;-76
2023/05/21 12:10:41;;;;;;;8.63;4.28;;;24.60;56.10;;;;;;5074560;28;20043;-76
2023/05/21 12:13:06;;;;;;;6.65;4.38;;;24.50;54.10;;;;;;5057147;28;20060;-76
2023/05/21 12:15:32;;;;;;;6.15;3.97;;;24.30;55.10;;;;;;5074667;28;20028;-76
2023/05/21 12:17:58;;;;;;;6.43;4.18;;;24.20;53.80;;;;;;5056834;28;20051;-76
2023/05/21 12:20:26;;;;;;;7.68;4.18;;;24.00;54.40;;;;;;5074704;28;20556;-76
2023/05/21 12:22:53;;;;;;;11.07;4.20;;;23.90;54.40;;;;;;5074621;28;20029;-76
2023/05/21 12:25:19;;;;;;;7.88;4.25;;;23.90;56.20;;;;;;5055833;28;20040;-76
2023/05/21 12:27:45;;;;;;;6.57;4.40;;;24.00;54.30;;;;;;5094570;28;20476;-76
2023/05/21 12:30:12;;;;;;;7.57;4.25;;;24.10;55.20;;;;;;5075930;28;20154;-76
2023/05/21 12:32:45;;;;;;;5.63;4.07;;;24.20;55.10;;;;;;5074401;28;20047;-76
2023/05/21 12:35:21;;;;;;;11.40;4.22;;;24.10;54.80;;;;;;5073488;28;20024;-75
2023/05/21 12:37:49;;;;;;;7.07;4.43;;;24.00;54.80;;;;;;5055639;28;20033;-76
2023/05/21 12:40:15;;;;;;;6.80;4.30;;;24.10;55.80;;;;;;5074472;28;20024;-76
2023/05/21 12:42:43;;;;;;;5.13;3.65;;;24.30;53.70;;;;;;5054499;28;20544;-76
2023/05/21 12:45:09;;;;;;;5.75;3.67;;;24.20;53.90;;;;;;5056535;28;20052;-76
2023/05/21 12:47:36;;;;;;;4.45;3.47;;;24.40;54.50;;;;;;5056590;28;20074;-76
2023/05/21 12:50:03;;;;;;;9.07;3.83;;;24.60;55.30;;;;;;5074321;28;20063;-76
2023/05/21 12:52:29;;;;;;;5.15;4.00;;;24.70;54.80;;;;;;5073143;28;20078;-76
2023/05/21 12:54:56;;;;;;;5.85;4.03;;;24.40;52.40;;;;;;5084643;28;20062;-76
2023/05/21 12:57:29;;;;;;;9.02;4.50;;;24.40;54.10;;;;;;5068912;28;20067;-76